sensor_id;sensor_type;location;lat;lon;timestamp;P1;durP1;ratioP1;P2;durP2;ratioP2
39324;SDS011;25037;49.488;9.900;2022-11-23T00:03:45;10.43;;;3.03;;
39324;SDS011;25037;49.488;9.900;2022-11-23T00:06:12;7.15;;;2.83;;
39324;SDS011;25037;49.488;9.900;2022-11-23T00:08:39;9.73;;;3.45;;
39324;SDS011;25037;49.488;9.900;2022-11-23T00:11:04;6.25;;;2.50;;
39324;SDS011;25037;49.488;9.900;2022-11-23T00:13:30;6.90;;;2.65;;
39324;SDS011;25037;49.488;9.900;2022-11-23T00:15:56;7.70;;;2.83;;
39324;SDS011;25037;49.488;9.900;2022-11-23T00:18:21;7.45;;;3.13;;
39324;SDS011;25037;49.488;9.900;2022-11-23T00:20:47;6.40;;;2.90;;
39324;SDS011;25037;49.488;9.900;2022-11-23T00:23:13;8.30;;;2.60;;
39324;SDS011;25037;49.488;9.900;2022-11-23T00:25:38;5.78;;;2.40;;
39324;SDS011;25037;49.488;9.900;2022-11-23T00:28:04;5.25;;;2.45;;
39324;SDS011;25037;49.488;9.900;2022-11-23T00:30:29;6.30;;;2.53;;
39324;SDS011;25037;49.488;9.900;2022-11-23T00:32:55;5.35;;;2.28;;
39324;SDS011;25037;49.488;9.900;2022-11-23T00:35:21;5.68;;;2.38;;
39324;SDS011;25037;49.488;9.900;2022-11-23T00:37:47;7.18;;;2.40;;
39324;SDS011;25037;49.488;9.900;2022-11-23T00:40:13;6.85;;;2.78;;
39324;SDS011;25037;49.488;9.900;2022-11-23T00:42:38;5.32;;;2.40;;
39324;SDS011;25037;49.488;9.900;2022-11-23T00:45:04;5.75;;;2.17;;
39324;SDS011;25037;49.488;9.900;2022-11-23T00:47:30;4.60;;;2.45;;
39324;SDS011;25037;49.488;9.900;2022-11-23T00:49:55;5.28;;;2.60;;
39324;SDS011;25037;49.488;9.900;2022-11-23T00:52:22;6.03;;;2.63;;
39324;SDS011;25037;49.488;9.900;2022-11-23T00:54:47;6.95;;;2.28;;
39324;SDS011;25037;49.488;9.900;2022-11-23T00:57:13;6.88;;;2.50;;
39324;SDS011;25037;49.488;9.900;2022-11-23T00:59:38;3.55;;;2.10;;
39324;SDS011;25037;49.488;9.900;2022-11-23T01:02:04;5.03;;;2.05;;
39324;SDS011;25037;49.488;9.900;2022-11-23T01:04:29;5.78;;;2.40;;
39324;SDS011;25037;49.488;9.900;2022-11-23T01:06:55;6.25;;;2.72;;
39324;SDS011;25037;49.488;9.900;2022-11-23T01:09:23;5.57;;;2.10;;
39324;SDS011;25037;49.488;9.900;2022-11-23T01:11:51;4.07;;;1.90;;
39324;SDS011;25037;49.488;9.900;2022-11-23T01:14:17;5.07;;;1.70;;
39324;SDS011;25037;49.488;9.900;2022-11-23T01:16:43;5.78;;;1.85;;
39324;SDS011;25037;49.488;9.900;2022-11-23T01:19:12;6.90;;;2.28;;
39324;SDS011;25037;49.488;9.900;2022-11-23T01:21:40;7.55;;;2.03;;
39324;SDS011;25037;49.488;9.900;2022-11-23T01:24:07;5.97;;;1.98;;
39324;SDS011;25037;49.488;9.900;2022-11-23T01:26:35;5.10;;;2.30;;
39324;SDS011;25037;49.488;9.900;2022-11-23T01:29:01;9.00;;;2.90;;
39324;SDS011;25037;49.488;9.900;2022-11-23T01:31:26;6.68;;;2.30;;
39324;SDS011;25037;49.488;9.900;2022-11-23T01:33:53;5.97;;;2.15;;
39324;SDS011;25037;49.488;9.900;2022-11-23T01:36:20;4.32;;;1.80;;
39324;SDS011;25037;49.488;9.900;2022-11-23T01:38:48;5.07;;;2.67;;
39324;SDS011;25037;49.488;9.900;2022-11-23T01:41:15;5.80;;;1.98;;
39324;SDS011;25037;49.488;9.900;2022-11-23T01:43:42;4.90;;;1.73;;
39324;SDS011;25037;49.488;9.900;2022-11-23T01:46:08;5.97;;;2.20;;
39324;SDS011;25037;49.488;9.900;2022-11-23T01:51:14;5.32;;;1.90;;
39324;SDS011;25037;49.488;9.900;2022-11-23T01:53:41;3.95;;;1.90;;
39324;SDS011;25037;49.488;9.900;2022-11-23T01:56:09;4.22;;;2.13;;
39324;SDS011;25037;49.488;9.900;2022-11-23T01:58:39;4.57;;;2.00;;
39324;SDS011;25037;49.488;9.900;2022-11-23T02:01:07;6.50;;;1.95;;
39324;SDS011;25037;49.488;9.900;2022-11-23T02:03:33;5.10;;;2.28;;
39324;SDS011;25037;49.488;9.900;2022-11-23T02:06:02;4.68;;;1.65;;
39324;SDS011;25037;49.488;9.900;2022-11-23T02:08:31;3.88;;;1.70;;
39324;SDS011;25037;49.488;9.900;2022-11-23T02:10:58;3.83;;;1.63;;
39324;SDS011;25037;49.488;9.900;2022-11-23T02:13:24;5.18;;;2.58;;
39324;SDS011;25037;49.488;9.900;2022-11-23T02:15:51;5.50;;;2.55;;
39324;SDS011;25037;49.488;9.900;2022-11-23T02:18:19;5.38;;;2.50;;
39324;SDS011;25037;49.488;9.900;2022-11-23T02:20:47;4.72;;;2.45;;
39324;SDS011;25037;49.488;9.900;2022-11-23T02:28:10;5.47;;;2.33;;
39324;SDS011;25037;49.488;9.900;2022-11-23T02:30:38;6.68;;;3.13;;
39324;SDS011;25037;49.488;9.900;2022-11-23T02:33:05;4.43;;;2.15;;
39324;SDS011;25037;49.488;9.900;2022-11-23T02:35:31;6.60;;;2.10;;
39324;SDS011;25037;49.488;9.900;2022-11-23T02:37:58;4.82;;;2.15;;
39324;SDS011;25037;49.488;9.900;2022-11-23T02:40:33;3.80;;;1.70;;
39324;SDS011;25037;49.488;9.900;2022-11-23T02:43:00;4.88;;;2.13;;
39324;SDS011;25037;49.488;9.900;2022-11-23T02:45:44;3.30;;;1.90;;
39324;SDS011;25037;49.488;9.900;2022-11-23T02:48:14;3.75;;;1.90;;
39324;SDS011;25037;49.488;9.900;2022-11-23T02:50:39;3.67;;;1.90;;
39324;SDS011;25037;49.488;9.900;2022-11-23T02:53:05;3.88;;;1.73;;
39324;SDS011;25037;49.488;9.900;2022-11-23T02:55:30;5.80;;;2.00;;
39324;SDS011;25037;49.488;9.900;2022-11-23T02:57:56;4.43;;;2.17;;
39324;SDS011;25037;49.488;9.900;2022-11-23T03:00:21;4.38;;;1.85;;
39324;SDS011;25037;49.488;9.900;2022-11-23T03:02:47;5.20;;;1.80;;
39324;SDS011;25037;49.488;9.900;2022-11-23T03:05:13;5.03;;;1.80;;
39324;SDS011;25037;49.488;9.900;2022-11-23T03:07:38;5.88;;;2.30;;
39324;SDS011;25037;49.488;9.900;2022-11-23T03:10:04;3.97;;;1.85;;
39324;SDS011;25037;49.488;9.900;2022-11-23T03:12:30;4.40;;;1.77;;
39324;SDS011;25037;49.488;9.900;2022-11-23T03:14:55;5.10;;;2.55;;
39324;SDS011;25037;49.488;9.900;2022-11-23T03:17:21;4.97;;;1.90;;
39324;SDS011;25037;49.488;9.900;2022-11-23T03:19:47;4.90;;;2.25;;
39324;SDS011;25037;49.488;9.900;2022-11-23T03:22:12;6.78;;;1.98;;
39324;SDS011;25037;49.488;9.900;2022-11-23T03:24:38;7.63;;;2.13;;
39324;SDS011;25037;49.488;9.900;2022-11-23T03:27:03;5.82;;;2.50;;
39324;SDS011;25037;49.488;9.900;2022-11-23T03:29:29;4.95;;;2.25;;
39324;SDS011;25037;49.488;9.900;2022-11-23T03:31:55;5.60;;;2.20;;
39324;SDS011;25037;49.488;9.900;2022-11-23T03:34:20;5.88;;;1.95;;
39324;SDS011;25037;49.488;9.900;2022-11-23T03:36:46;5.75;;;2.25;;
39324;SDS011;25037;49.488;9.900;2022-11-23T03:39:11;5.53;;;1.83;;
39324;SDS011;25037;49.488;9.900;2022-11-23T03:41:37;5.90;;;2.30;;
39324;SDS011;25037;49.488;9.900;2022-11-23T03:44:02;4.22;;;2.10;;
39324;SDS011;25037;49.488;9.900;2022-11-23T03:46:28;7.72;;;2.40;;
39324;SDS011;25037;49.488;9.900;2022-11-23T03:48:54;7.15;;;2.38;;
39324;SDS011;25037;49.488;9.900;2022-11-23T03:51:19;3.40;;;1.73;;
39324;SDS011;25037;49.488;9.900;2022-11-23T03:53:45;6.40;;;2.30;;
39324;SDS011;25037;49.488;9.900;2022-11-23T03:56:11;5.60;;;2.55;;
39324;SDS011;25037;49.488;9.900;2022-11-23T03:58:36;5.82;;;2.42;;
39324;SDS011;25037;49.488;9.900;2022-11-23T04:01:02;5.70;;;2.05;;
39324;SDS011;25037;49.488;9.900;2022-11-23T04:03:27;6.03;;;2.03;;
39324;SDS011;25037;49.488;9.900;2022-11-23T04:05:53;5.93;;;2.00;;
39324;SDS011;25037;49.488;9.900;2022-11-23T04:08:19;7.88;;;2.20;;
39324;SDS011;25037;49.488;9.900;2022-11-23T04:10:44;6.25;;;2.40;;
39324;SDS011;25037;49.488;9.900;2022-11-23T04:13:10;4.32;;;1.95;;
39324;SDS011;25037;49.488;9.900;2022-11-23T04:15:35;3.50;;;1.92;;
39324;SDS011;25037;49.488;9.900;2022-11-23T04:18:01;6.15;;;2.03;;
39324;SDS011;25037;49.488;9.900;2022-11-23T04:20:27;5.45;;;2.67;;
39324;SDS011;25037;49.488;9.900;2022-11-23T04:22:52;8.43;;;2.65;;
39324;SDS011;25037;49.488;9.900;2022-11-23T04:25:18;5.00;;;1.92;;
39324;SDS011;25037;49.488;9.900;2022-11-23T04:27:44;5.47;;;2.67;;
39324;SDS011;25037;49.488;9.900;2022-11-23T04:30:09;7.75;;;2.75;;
39324;SDS011;25037;49.488;9.900;2022-11-23T04:32:35;5.90;;;2.20;;
39324;SDS011;25037;49.488;9.900;2022-11-23T04:35:01;5.40;;;2.22;;
39324;SDS011;25037;49.488;9.900;2022-11-23T04:37:27;6.60;;;2.42;;
39324;SDS011;25037;49.488;9.900;2022-11-23T04:39:52;3.60;;;2.13;;
39324;SDS011;25037;49.488;9.900;2022-11-23T04:42:18;3.95;;;2.15;;
39324;SDS011;25037;49.488;9.900;2022-11-23T04:44:43;5.78;;;2.40;;
39324;SDS011;25037;49.488;9.900;2022-11-23T04:47:10;3.88;;;1.85;;
39324;SDS011;25037;49.488;9.900;2022-11-23T04:49:36;5.70;;;2.55;;
39324;SDS011;25037;49.488;9.900;2022-11-23T04:52:01;4.35;;;2.03;;
39324;SDS011;25037;49.488;9.900;2022-11-23T04:54:27;4.50;;;2.22;;
39324;SDS011;25037;49.488;9.900;2022-11-23T04:56:53;5.05;;;2.38;;
39324;SDS011;25037;49.488;9.900;2022-11-23T04:59:20;4.78;;;2.22;;
39324;SDS011;25037;49.488;9.900;2022-11-23T05:01:46;6.97;;;2.60;;
39324;SDS011;25037;49.488;9.900;2022-11-23T05:04:12;6.97;;;2.28;;
39324;SDS011;25037;49.488;9.900;2022-11-23T05:06:38;5.50;;;2.55;;
39324;SDS011;25037;49.488;9.900;2022-11-23T05:09:04;6.97;;;2.80;;
39324;SDS011;25037;49.488;9.900;2022-11-23T05:11:30;6.40;;;2.20;;
39324;SDS011;25037;49.488;9.900;2022-11-23T05:13:55;5.50;;;2.13;;
39324;SDS011;25037;49.488;9.900;2022-11-23T05:16:21;5.85;;;3.22;;
39324;SDS011;25037;49.488;9.900;2022-11-23T05:18:46;7.03;;;2.58;;
39324;SDS011;25037;49.488;9.900;2022-11-23T05:21:12;7.05;;;2.72;;
39324;SDS011;25037;49.488;9.900;2022-11-23T05:23:37;6.45;;;3.08;;
39324;SDS011;25037;49.488;9.900;2022-11-23T05:26:03;9.88;;;2.95;;
39324;SDS011;25037;49.488;9.900;2022-11-23T05:28:28;5.38;;;2.83;;
39324;SDS011;25037;49.488;9.900;2022-11-23T05:30:54;5.65;;;3.10;;
39324;SDS011;25037;49.488;9.900;2022-11-23T05:33:20;6.60;;;3.25;;
39324;SDS011;25037;49.488;9.900;2022-11-23T05:35:45;6.82;;;2.60;;
39324;SDS011;25037;49.488;9.900;2022-11-23T05:38:10;5.45;;;2.30;;
39324;SDS011;25037;49.488;9.900;2022-11-23T05:40:36;5.60;;;2.78;;
39324;SDS011;25037;49.488;9.900;2022-11-23T05:43:02;5.70;;;2.22;;
39324;SDS011;25037;49.488;9.900;2022-11-23T05:45:28;7.97;;;3.13;;
39324;SDS011;25037;49.488;9.900;2022-11-23T05:47:54;6.28;;;2.67;;
39324;SDS011;25037;49.488;9.900;2022-11-23T05:50:23;6.88;;;2.90;;
39324;SDS011;25037;49.488;9.900;2022-11-23T05:52:50;6.32;;;2.83;;
39324;SDS011;25037;49.488;9.900;2022-11-23T05:55:15;7.70;;;2.80;;
39324;SDS011;25037;49.488;9.900;2022-11-23T05:57:41;10.55;;;3.83;;
39324;SDS011;25037;49.488;9.900;2022-11-23T06:00:07;6.97;;;3.20;;
39324;SDS011;25037;49.488;9.900;2022-11-23T06:02:36;8.57;;;3.20;;
39324;SDS011;25037;49.488;9.900;2022-11-23T06:05:02;6.40;;;3.17;;
39324;SDS011;25037;49.488;9.900;2022-11-23T06:07:30;6.35;;;3.13;;
39324;SDS011;25037;49.488;9.900;2022-11-23T06:10:00;5.75;;;3.30;;
39324;SDS011;25037;49.488;9.900;2022-11-23T06:12:26;6.75;;;2.92;;
39324;SDS011;25037;49.488;9.900;2022-11-23T06:14:53;8.75;;;3.85;;
39324;SDS011;25037;49.488;9.900;2022-11-23T06:17:18;4.35;;;2.80;;
39324;SDS011;25037;49.488;9.900;2022-11-23T06:19:44;8.73;;;3.33;;
39324;SDS011;25037;49.488;9.900;2022-11-23T06:22:09;7.35;;;3.35;;
39324;SDS011;25037;49.488;9.900;2022-11-23T06:24:35;6.65;;;3.03;;
39324;SDS011;25037;49.488;9.900;2022-11-23T06:27:00;6.80;;;3.13;;
39324;SDS011;25037;49.488;9.900;2022-11-23T06:29:26;6.93;;;2.83;;
39324;SDS011;25037;49.488;9.900;2022-11-23T06:31:51;6.93;;;3.55;;
39324;SDS011;25037;49.488;9.900;2022-11-23T06:34:18;5.15;;;2.92;;
39324;SDS011;25037;49.488;9.900;2022-11-23T06:36:44;7.28;;;2.97;;
39324;SDS011;25037;49.488;9.900;2022-11-23T06:39:09;7.57;;;3.28;;
39324;SDS011;25037;49.488;9.900;2022-11-23T06:41:35;5.63;;;3.05;;
39324;SDS011;25037;49.488;9.900;2022-11-23T06:44:00;6.97;;;2.97;;
39324;SDS011;25037;49.488;9.900;2022-11-23T06:46:26;6.30;;;3.38;;
39324;SDS011;25037;49.488;9.900;2022-11-23T06:48:52;6.03;;;3.08;;
39324;SDS011;25037;49.488;9.900;2022-11-23T06:51:17;8.07;;;3.55;;
39324;SDS011;25037;49.488;9.900;2022-11-23T06:53:43;9.57;;;3.00;;
39324;SDS011;25037;49.488;9.900;2022-11-23T06:56:08;9.48;;;4.85;;
39324;SDS011;25037;49.488;9.900;2022-11-23T06:58:34;7.85;;;3.90;;
39324;SDS011;25037;49.488;9.900;2022-11-23T07:01:01;8.48;;;3.70;;
39324;SDS011;25037;49.488;9.900;2022-11-23T07:03:29;8.90;;;4.15;;
39324;SDS011;25037;49.488;9.900;2022-11-23T07:05:55;8.57;;;4.22;;
39324;SDS011;25037;49.488;9.900;2022-11-23T07:08:20;8.43;;;4.07;;
39324;SDS011;25037;49.488;9.900;2022-11-23T07:10:46;8.02;;;4.28;;
39324;SDS011;25037;49.488;9.900;2022-11-23T07:13:12;8.25;;;3.72;;
39324;SDS011;25037;49.488;9.900;2022-11-23T07:15:38;11.55;;;4.15;;
39324;SDS011;25037;49.488;9.900;2022-11-23T07:18:05;7.82;;;4.78;;
39324;SDS011;25037;49.488;9.900;2022-11-23T07:20:31;10.75;;;5.93;;
39324;SDS011;25037;49.488;9.900;2022-11-23T07:23:06;15.00;;;8.95;;
39324;SDS011;25037;49.488;9.900;2022-11-23T07:25:34;13.35;;;7.82;;
39324;SDS011;25037;49.488;9.900;2022-11-23T07:28:01;14.05;;;8.00;;
39324;SDS011;25037;49.488;9.900;2022-11-23T07:30:29;15.45;;;8.25;;
39324;SDS011;25037;49.488;9.900;2022-11-23T07:32:59;13.65;;;7.65;;
39324;SDS011;25037;49.488;9.900;2022-11-23T07:35:29;16.48;;;10.77;;
39324;SDS011;25037;49.488;9.900;2022-11-23T07:37:56;16.30;;;9.70;;
39324;SDS011;25037;49.488;9.900;2022-11-23T07:40:22;14.00;;;8.68;;
39324;SDS011;25037;49.488;9.900;2022-11-23T07:42:47;14.05;;;7.07;;
39324;SDS011;25037;49.488;9.900;2022-11-23T07:45:13;10.13;;;6.40;;
39324;SDS011;25037;49.488;9.900;2022-11-23T07:47:39;13.02;;;6.03;;
39324;SDS011;25037;49.488;9.900;2022-11-23T07:50:05;10.63;;;6.07;;
39324;SDS011;25037;49.488;9.900;2022-11-23T07:52:32;14.27;;;8.10;;
39324;SDS011;25037;49.488;9.900;2022-11-23T07:54:59;14.43;;;8.70;;
39324;SDS011;25037;49.488;9.900;2022-11-23T07:57:25;18.42;;;9.63;;
39324;SDS011;25037;49.488;9.900;2022-11-23T07:59:50;21.55;;;12.70;;
39324;SDS011;25037;49.488;9.900;2022-11-23T08:02:16;20.85;;;13.43;;
39324;SDS011;25037;49.488;9.900;2022-11-23T08:04:42;27.33;;;17.50;;
39324;SDS011;25037;49.488;9.900;2022-11-23T08:07:07;32.85;;;21.27;;
39324;SDS011;25037;49.488;9.900;2022-11-23T08:09:33;34.05;;;23.13;;
39324;SDS011;25037;49.488;9.900;2022-11-23T08:11:58;34.95;;;22.88;;
39324;SDS011;25037;49.488;9.900;2022-11-23T08:14:24;27.95;;;19.38;;
39324;SDS011;25037;49.488;9.900;2022-11-23T08:16:49;25.95;;;16.33;;
39324;SDS011;25037;49.488;9.900;2022-11-23T08:19:16;24.58;;;15.80;;
39324;SDS011;25037;49.488;9.900;2022-11-23T08:21:42;24.35;;;16.48;;
39324;SDS011;25037;49.488;9.900;2022-11-23T08:24:08;27.52;;;16.17;;
39324;SDS011;25037;49.488;9.900;2022-11-23T08:26:34;27.05;;;17.67;;
39324;SDS011;25037;49.488;9.900;2022-11-23T08:28:59;25.35;;;16.85;;
39324;SDS011;25037;49.488;9.900;2022-11-23T08:31:25;22.52;;;15.98;;
39324;SDS011;25037;49.488;9.900;2022-11-23T08:33:51;23.88;;;15.65;;
39324;SDS011;25037;49.488;9.900;2022-11-23T08:36:16;22.15;;;14.80;;
39324;SDS011;25037;49.488;9.900;2022-11-23T08:38:42;23.10;;;14.57;;
39324;SDS011;25037;49.488;9.900;2022-11-23T08:41:07;19.38;;;14.07;;
39324;SDS011;25037;49.488;9.900;2022-11-23T08:43:33;20.90;;;12.50;;
39324;SDS011;25037;49.488;9.900;2022-11-23T08:45:59;19.13;;;12.18;;
39324;SDS011;25037;49.488;9.900;2022-11-23T08:48:26;17.20;;;11.88;;
39324;SDS011;25037;49.488;9.900;2022-11-23T08:50:52;19.80;;;13.13;;
39324;SDS011;25037;49.488;9.900;2022-11-23T08:53:18;22.23;;;12.60;;
39324;SDS011;25037;49.488;9.900;2022-11-23T08:55:43;18.15;;;12.30;;
39324;SDS011;25037;49.488;9.900;2022-11-23T08:58:09;18.65;;;11.50;;
39324;SDS011;25037;49.488;9.900;2022-11-23T09:00:35;18.15;;;12.77;;
39324;SDS011;25037;49.488;9.900;2022-11-23T09:03:00;18.38;;;12.82;;
39324;SDS011;25037;49.488;9.900;2022-11-23T09:05:26;16.02;;;12.27;;
39324;SDS011;25037;49.488;9.900;2022-11-23T09:07:53;17.65;;;12.52;;
39324;SDS011;25037;49.488;9.900;2022-11-23T09:10:19;16.60;;;11.00;;
39324;SDS011;25037;49.488;9.900;2022-11-23T09:12:45;20.05;;;11.25;;
39324;SDS011;25037;49.488;9.900;2022-11-23T09:15:13;15.60;;;9.40;;
39324;SDS011;25037;49.488;9.900;2022-11-23T09:17:39;13.90;;;10.18;;
39324;SDS011;25037;49.488;9.900;2022-11-23T09:20:05;15.52;;;8.85;;
39324;SDS011;25037;49.488;9.900;2022-11-23T09:22:31;12.48;;;7.97;;
39324;SDS011;25037;49.488;9.900;2022-11-23T09:24:56;13.95;;;6.82;;
39324;SDS011;25037;49.488;9.900;2022-11-23T09:27:22;11.30;;;4.47;;
39324;SDS011;25037;49.488;9.900;2022-11-23T09:29:48;9.70;;;4.47;;
39324;SDS011;25037;49.488;9.900;2022-11-23T09:32:14;5.68;;;2.88;;
39324;SDS011;25037;49.488;9.900;2022-11-23T09:34:39;4.35;;;1.98;;
39324;SDS011;25037;49.488;9.900;2022-11-23T09:37:05;8.23;;;2.28;;
39324;SDS011;25037;49.488;9.900;2022-11-23T09:39:30;5.68;;;1.95;;
39324;SDS011;25037;49.488;9.900;2022-11-23T09:42:00;6.22;;;2.30;;
39324;SDS011;25037;49.488;9.900;2022-11-23T09:47:51;5.57;;;2.08;;
39324;SDS011;25037;49.488;9.900;2022-11-23T09:50:27;8.30;;;3.88;;
39324;SDS011;25037;49.488;9.900;2022-11-23T09:52:59;6.17;;;2.50;;
39324;SDS011;25037;49.488;9.900;2022-11-23T09:55:36;4.78;;;1.60;;
39324;SDS011;25037;49.488;9.900;2022-11-23T09:58:06;5.53;;;1.40;;
39324;SDS011;25037;49.488;9.900;2022-11-23T10:00:43;4.60;;;1.88;;
39324;SDS011;25037;49.488;9.900;2022-11-23T10:03:15;5.43;;;1.95;;
39324;SDS011;25037;49.488;9.900;2022-11-23T10:05:43;6.60;;;2.00;;
39324;SDS011;25037;49.488;9.900;2022-11-23T10:08:22;8.85;;;1.50;;
39324;SDS011;25037;49.488;9.900;2022-11-23T10:11:11;6.18;;;1.50;;
39324;SDS011;25037;49.488;9.900;2022-11-23T10:16:58;4.63;;;1.10;;
39324;SDS011;25037;49.488;9.900;2022-11-23T10:22:20;6.35;;;1.50;;
39324;SDS011;25037;49.488;9.900;2022-11-23T10:24:58;6.85;;;1.23;;
39324;SDS011;25037;49.488;9.900;2022-11-23T10:27:28;4.40;;;0.75;;
39324;SDS011;25037;49.488;9.900;2022-11-23T10:29:54;5.45;;;1.27;;
39324;SDS011;25037;49.488;9.900;2022-11-23T10:32:30;3.17;;;0.90;;
39324;SDS011;25037;49.488;9.900;2022-11-23T10:35:16;7.05;;;1.20;;
39324;SDS011;25037;49.488;9.900;2022-11-23T10:37:46;5.05;;;1.15;;
39324;SDS011;25037;49.488;9.900;2022-11-23T10:40:20;5.40;;;0.80;;
39324;SDS011;25037;49.488;9.900;2022-11-23T10:42:50;5.45;;;1.10;;
39324;SDS011;25037;49.488;9.900;2022-11-23T10:45:24;2.50;;;0.60;;
39324;SDS011;25037;49.488;9.900;2022-11-23T10:47:52;4.22;;;0.65;;
39324;SDS011;25037;49.488;9.900;2022-11-23T10:50:26;7.43;;;1.00;;
39324;SDS011;25037;49.488;9.900;2022-11-23T10:52:58;8.30;;;1.23;;
39324;SDS011;25037;49.488;9.900;2022-11-23T10:55:29;4.13;;;0.65;;
39324;SDS011;25037;49.488;9.900;2022-11-23T10:58:22;5.30;;;0.77;;
39324;SDS011;25037;49.488;9.900;2022-11-23T11:00:57;8.60;;;1.83;;
39324;SDS011;25037;49.488;9.900;2022-11-23T11:03:24;5.45;;;1.65;;
39324;SDS011;25037;49.488;9.900;2022-11-23T11:05:50;4.05;;;0.70;;
39324;SDS011;25037;49.488;9.900;2022-11-23T11:08:16;5.03;;;0.90;;
39324;SDS011;25037;49.488;9.900;2022-11-23T11:13:30;6.93;;;1.23;;
39324;SDS011;25037;49.488;9.900;2022-11-23T11:16:05;4.90;;;0.75;;
39324;SDS011;25037;49.488;9.900;2022-11-23T11:18:42;5.38;;;0.80;;
39324;SDS011;25037;49.488;9.900;2022-11-23T11:21:20;6.47;;;1.20;;
39324;SDS011;25037;49.488;9.900;2022-11-23T11:23:56;7.63;;;1.20;;
39324;SDS011;25037;49.488;9.900;2022-11-23T11:26:28;5.95;;;1.00;;
39324;SDS011;25037;49.488;9.900;2022-11-23T11:28:56;5.32;;;0.98;;
39324;SDS011;25037;49.488;9.900;2022-11-23T11:34:12;5.32;;;1.20;;
39324;SDS011;25037;49.488;9.900;2022-11-23T11:42:29;4.75;;;0.88;;
39324;SDS011;25037;49.488;9.900;2022-11-23T11:45:00;4.63;;;0.70;;
39324;SDS011;25037;49.488;9.900;2022-11-23T11:47:30;5.35;;;0.90;;
39324;SDS011;25037;49.488;9.900;2022-11-23T11:50:02;6.45;;;1.15;;
39324;SDS011;25037;49.488;9.900;2022-11-23T11:52:41;7.13;;;1.63;;
39324;SDS011;25037;49.488;9.900;2022-11-23T11:55:18;7.72;;;1.58;;
39324;SDS011;25037;49.488;9.900;2022-11-23T11:57:51;6.00;;;1.40;;
39324;SDS011;25037;49.488;9.900;2022-11-23T12:00:20;6.22;;;1.35;;
39324;SDS011;25037;49.488;9.900;2022-11-23T12:02:55;18.38;;;13.57;;
39324;SDS011;25037;49.488;9.900;2022-11-23T12:05:38;4.65;;;2.30;;
39324;SDS011;25037;49.488;9.900;2022-11-23T12:10:54;7.60;;;1.23;;
39324;SDS011;25037;49.488;9.900;2022-11-23T12:13:26;9.05;;;1.23;;
39324;SDS011;25037;49.488;9.900;2022-11-23T12:16:04;5.72;;;1.00;;
39324;SDS011;25037;49.488;9.900;2022-11-23T12:18:55;7.53;;;1.08;;
39324;SDS011;25037;49.488;9.900;2022-11-23T12:24:22;6.47;;;1.08;;
39324;SDS011;25037;49.488;9.900;2022-11-23T12:27:05;4.97;;;0.98;;
39324;SDS011;25037;49.488;9.900;2022-11-23T12:29:52;4.97;;;0.82;;
39324;SDS011;25037;49.488;9.900;2022-11-23T12:35:35;4.88;;;1.20;;
39324;SDS011;25037;49.488;9.900;2022-11-23T12:38:44;4.53;;;0.80;;
39324;SDS011;25037;49.488;9.900;2022-11-23T12:41:18;8.95;;;1.98;;
39324;SDS011;25037;49.488;9.900;2022-11-23T12:46:54;4.88;;;0.88;;
39324;SDS011;25037;49.488;9.900;2022-11-23T12:49:48;4.82;;;0.77;;
39324;SDS011;25037;49.488;9.900;2022-11-23T12:52:31;5.38;;;0.98;;
39324;SDS011;25037;49.488;9.900;2022-11-23T12:55:27;4.82;;;1.15;;
39324;SDS011;25037;49.488;9.900;2022-11-23T12:57:57;5.13;;;1.08;;
39324;SDS011;25037;49.488;9.900;2022-11-23T13:00:24;5.07;;;1.30;;
39324;SDS011;25037;49.488;9.900;2022-11-23T13:03:09;5.15;;;0.73;;
39324;SDS011;25037;49.488;9.900;2022-11-23T13:14:06;5.25;;;1.17;;
39324;SDS011;25037;49.488;9.900;2022-11-23T13:16:53;5.05;;;0.82;;
39324;SDS011;25037;49.488;9.900;2022-11-23T13:19:52;6.30;;;1.20;;
39324;SDS011;25037;49.488;9.900;2022-11-23T13:22:48;4.40;;;1.00;;
39324;SDS011;25037;49.488;9.900;2022-11-23T13:25:25;3.38;;;0.82;;
39324;SDS011;25037;49.488;9.900;2022-11-23T13:28:25;7.68;;;1.00;;
39324;SDS011;25037;49.488;9.900;2022-11-23T13:31:16;4.07;;;0.73;;
39324;SDS011;25037;49.488;9.900;2022-11-23T13:34:42;4.05;;;0.75;;
39324;SDS011;25037;49.488;9.900;2022-11-23T13:36:57;2.60;;;0.65;;
39324;SDS011;25037;49.488;9.900;2022-11-23T13:42:07;4.85;;;0.93;;
39324;SDS011;25037;49.488;9.900;2022-11-23T13:44:35;4.78;;;0.93;;
39324;SDS011;25037;49.488;9.900;2022-11-23T13:54:52;4.13;;;0.70;;
39324;SDS011;25037;49.488;9.900;2022-11-23T13:57:37;3.75;;;1.00;;
39324;SDS011;25037;49.488;9.900;2022-11-23T14:09:05;4.53;;;0.75;;
39324;SDS011;25037;49.488;9.900;2022-11-23T14:11:39;3.58;;;1.23;;
39324;SDS011;25037;49.488;9.900;2022-11-23T14:22:33;2.92;;;0.55;;
39324;SDS011;25037;49.488;9.900;2022-11-23T14:34:03;6.05;;;1.35;;
39324;SDS011;25037;49.488;9.900;2022-11-23T14:36:45;4.40;;;1.00;;
39324;SDS011;25037;49.488;9.900;2022-11-23T14:42:18;5.07;;;1.52;;
39324;SDS011;25037;49.488;9.900;2022-11-23T14:44:47;4.72;;;0.90;;
39324;SDS011;25037;49.488;9.900;2022-11-23T14:47:23;3.10;;;0.90;;
39324;SDS011;25037;49.488;9.900;2022-11-23T14:49:50;7.18;;;0.93;;
39324;SDS011;25037;49.488;9.900;2022-11-23T14:52:20;5.20;;;0.90;;
39324;SDS011;25037;49.488;9.900;2022-11-23T14:54:54;2.67;;;0.75;;
39324;SDS011;25037;49.488;9.900;2022-11-23T14:57:23;4.28;;;1.23;;
39324;SDS011;25037;49.488;9.900;2022-11-23T14:59:55;5.20;;;1.08;;
39324;SDS011;25037;49.488;9.900;2022-11-23T15:02:44;3.78;;;1.10;;
39324;SDS011;25037;49.488;9.900;2022-11-23T15:07:56;5.65;;;1.45;;
39324;SDS011;25037;49.488;9.900;2022-11-23T15:13:17;8.23;;;3.53;;
39324;SDS011;25037;49.488;9.900;2022-11-23T15:15:45;11.95;;;3.83;;
39324;SDS011;25037;49.488;9.900;2022-11-23T15:18:11;7.72;;;2.72;;
39324;SDS011;25037;49.488;9.900;2022-11-23T15:20:41;5.90;;;2.13;;
39324;SDS011;25037;49.488;9.900;2022-11-23T15:23:21;6.75;;;1.95;;
39324;SDS011;25037;49.488;9.900;2022-11-23T15:25:53;10.20;;;2.15;;
39324;SDS011;25037;49.488;9.900;2022-11-23T15:28:26;6.68;;;2.25;;
39324;SDS011;25037;49.488;9.900;2022-11-23T15:30:53;6.68;;;1.98;;
39324;SDS011;25037;49.488;9.900;2022-11-23T15:33:19;6.57;;;1.70;;
39324;SDS011;25037;49.488;9.900;2022-11-23T15:35:46;5.82;;;1.75;;
39324;SDS011;25037;49.488;9.900;2022-11-23T15:38:13;5.28;;;1.27;;
39324;SDS011;25037;49.488;9.900;2022-11-23T15:40:42;4.40;;;1.35;;
39324;SDS011;25037;49.488;9.900;2022-11-23T15:43:12;4.28;;;1.65;;
39324;SDS011;25037;49.488;9.900;2022-11-23T15:48:15;6.88;;;1.60;;
39324;SDS011;25037;49.488;9.900;2022-11-23T15:51:00;4.30;;;0.93;;
39324;SDS011;25037;49.488;9.900;2022-11-23T15:53:28;2.55;;;1.20;;
39324;SDS011;25037;49.488;9.900;2022-11-23T15:55:59;3.42;;;1.20;;
39324;SDS011;25037;49.488;9.900;2022-11-23T15:58:28;4.35;;;1.13;;
39324;SDS011;25037;49.488;9.900;2022-11-23T16:01:10;5.63;;;1.10;;
39324;SDS011;25037;49.488;9.900;2022-11-23T16:03:52;5.18;;;0.88;;
39324;SDS011;25037;49.488;9.900;2022-11-23T16:12:01;5.00;;;1.63;;
39324;SDS011;25037;49.488;9.900;2022-11-23T16:14:28;8.10;;;2.45;;
39324;SDS011;25037;49.488;9.900;2022-11-23T16:17:15;7.57;;;2.10;;
39324;SDS011;25037;49.488;9.900;2022-11-23T16:19:45;5.68;;;1.95;;
39324;SDS011;25037;49.488;9.900;2022-11-23T16:22:28;5.10;;;2.03;;
39324;SDS011;25037;49.488;9.900;2022-11-23T16:24:58;4.93;;;1.27;;
39324;SDS011;25037;49.488;9.900;2022-11-23T16:27:32;6.50;;;1.83;;
39324;SDS011;25037;49.488;9.900;2022-11-23T16:29:59;5.60;;;1.48;;
39324;SDS011;25037;49.488;9.900;2022-11-23T16:32:28;5.47;;;1.65;;
39324;SDS011;25037;49.488;9.900;2022-11-23T16:34:57;4.25;;;1.73;;
39324;SDS011;25037;49.488;9.900;2022-11-23T16:37:33;4.43;;;1.10;;
39324;SDS011;25037;49.488;9.900;2022-11-23T16:39:58;4.93;;;1.02;;